createdAt,value
2022-11-17T00:00:44.831Z,18.00
2022-11-17T00:03:15.854Z,17.40
2022-11-17T00:05:44.753Z,15.90
2022-11-17T00:08:12.697Z,18.30
2022-11-17T00:10:41.790Z,18.40
2022-11-17T00:13:29.868Z,20.20
2022-11-17T00:15:57.844Z,18.60
2022-11-17T00:18:45.561Z,19.10
2022-11-17T00:21:19.476Z,19.20
2022-11-17T00:23:48.458Z,17.10
2022-11-17T00:26:27.802Z,17.60
2022-11-17T00:29:01.286Z,16.80
2022-11-17T00:31:49.732Z,18.70
2022-11-17T00:34:20.424Z,16.70
2022-11-17T00:36:50.600Z,16.50
2022-11-17T00:39:20.779Z,20.30
2022-11-17T00:41:48.832Z,19.10
2022-11-17T00:44:16.984Z,19.10
2022-11-17T00:46:45.018Z,17.00
2022-11-17T00:49:13.004Z,17.90
2022-11-17T00:51:41.194Z,19.00
2022-11-17T00:54:11.863Z,19.30
2022-11-17T00:56:39.954Z,22.40
2022-11-17T00:59:07.832Z,18.80
2022-11-17T01:01:36.104Z,15.30
2022-11-17T01:04:04.631Z,18.70
2022-11-17T01:06:43.525Z,19.50
2022-11-17T01:09:17.261Z,21.60
2022-11-17T01:11:45.625Z,18.80
2022-11-17T01:14:16.903Z,21.00
2022-11-17T01:16:44.936Z,23.50
2022-11-17T01:19:16.695Z,18.40
2022-11-17T01:21:44.654Z,16.60
2022-11-17T01:24:13.465Z,16.30
2022-11-17T01:26:41.605Z,14.80
2022-11-17T01:29:12.295Z,17.20
2022-11-17T01:31:43.622Z,17.50
2022-11-17T01:34:13.165Z,16.60
2022-11-17T01:37:01.511Z,20.20
2022-11-17T01:39:30.426Z,13.70
2022-11-17T01:41:58.570Z,16.00
2022-11-17T01:44:41.802Z,14.50
2022-11-17T01:47:43.370Z,15.40
2022-11-17T01:50:37.596Z,15.70
2022-11-17T01:53:09.081Z,13.20
2022-11-17T01:55:41.764Z,16.90
2022-11-17T01:58:20.472Z,16.00
2022-11-17T02:00:48.972Z,12.20
2022-11-17T02:03:16.971Z,14.50
2022-11-17T02:06:14.022Z,14.60
2022-11-17T02:08:43.644Z,12.60
2022-11-17T02:11:17.212Z,15.00
2022-11-17T02:13:45.163Z,12.00
2022-11-17T02:16:14.449Z,14.60
2022-11-17T02:18:43.661Z,9.40
2022-11-17T02:21:44.783Z,13.20
2022-11-17T02:24:37.916Z,11.80
2022-11-17T02:27:37.829Z,12.60
2022-11-17T02:30:10.820Z,12.50
2022-11-17T02:32:56.369Z,12.80
2022-11-17T02:36:21.176Z,11.50
2022-11-17T02:38:55.230Z,10.00
2022-11-17T02:41:29.293Z,10.80
2022-11-17T02:44:11.356Z,11.80
2022-11-17T02:46:56.125Z,11.40
2022-11-17T02:49:36.020Z,11.50
2022-11-17T02:52:04.060Z,10.60
2022-11-17T02:54:32.017Z,12.20
2022-11-17T02:56:59.868Z,11.60
2022-11-17T02:59:35.112Z,11.70
2022-11-17T03:02:59.518Z,10.80
2022-11-17T03:05:38.418Z,11.10
2022-11-17T03:08:13.753Z,12.50
2022-11-17T03:10:56.788Z,10.40
2022-11-17T03:14:02.775Z,11.60
2022-11-17T03:16:35.917Z,11.90
2022-11-17T03:19:36.281Z,12.70
2022-11-17T03:22:32.508Z,15.20
2022-11-17T03:25:06.224Z,16.90
2022-11-17T03:27:37.377Z,11.20
2022-11-17T03:30:08.426Z,13.20
2022-11-17T03:32:42.330Z,11.60
2022-11-17T03:35:13.685Z,13.70
2022-11-17T03:37:52.234Z,13.10
2022-11-17T03:40:23.385Z,11.10
2022-11-17T03:42:54.052Z,12.00
2022-11-17T03:45:50.571Z,13.20
2022-11-17T03:48:28.404Z,13.00
2022-11-17T03:51:18.159Z,12.90
2022-11-17T03:53:46.998Z,12.50
2022-11-17T03:56:42.300Z,12.40
2022-11-17T03:59:26.220Z,11.20
2022-11-17T04:01:54.463Z,10.90
2022-11-17T04:04:22.694Z,12.70
2022-11-17T04:06:52.201Z,10.80
2022-11-17T04:09:24.162Z,13.80
2022-11-17T04:12:11.587Z,13.40
2022-11-17T04:14:58.210Z,11.90
2022-11-17T04:17:27.881Z,13.50
2022-11-17T04:19:55.718Z,12.70
2022-11-17T04:22:23.502Z,15.40
2022-11-17T04:24:52.184Z,14.30
2022-11-17T04:27:38.793Z,13.90
2022-11-17T04:30:07.679Z,14.10
2022-11-17T04:32:37.141Z,12.70
2022-11-17T04:35:05.492Z,11.50
2022-11-17T04:37:33.290Z,14.40
2022-11-17T04:40:06.514Z,14.10
2022-11-17T04:42:34.309Z,12.10
2022-11-17T04:45:02.115Z,14.40
2022-11-17T04:47:29.909Z,13.30
2022-11-17T04:49:57.672Z,13.60
2022-11-17T04:52:29.820Z,12.40
2022-11-17T04:54:57.953Z,13.30
2022-11-17T04:57:25.720Z,13.00
2022-11-17T04:59:53.743Z,15.20
2022-11-17T05:02:21.686Z,15.10
2022-11-17T05:04:58.726Z,14.00
2022-11-17T05:07:28.072Z,13.70
2022-11-17T05:09:58.049Z,14.00
2022-11-17T05:12:44.377Z,12.10
2022-11-17T05:15:32.243Z,12.60
2022-11-17T05:18:00.089Z,13.70
2022-11-17T05:20:29.002Z,13.50
2022-11-17T05:23:15.662Z,13.20
2022-11-17T05:25:44.856Z,15.40
2022-11-17T05:28:13.180Z,15.40
2022-11-17T05:30:40.921Z,14.20
2022-11-17T05:33:08.816Z,15.60
2022-11-17T05:35:36.696Z,14.40
2022-11-17T05:38:04.530Z,13.30
2022-11-17T05:40:34.517Z,14.70
2022-11-17T05:43:02.323Z,14.00
2022-11-17T05:45:30.096Z,15.40
2022-11-17T05:48:01.742Z,12.20
2022-11-17T05:50:29.573Z,14.00
2022-11-17T05:53:02.147Z,15.40
2022-11-17T05:55:32.066Z,15.40
2022-11-17T05:58:07.544Z,14.10
2022-11-17T06:00:37.561Z,11.80
2022-11-17T06:03:08.451Z,14.70
2022-11-17T06:05:36.363Z,13.10
2022-11-17T06:08:04.573Z,12.30
2022-11-17T06:10:34.214Z,15.50
2022-11-17T06:13:02.002Z,22.20
2022-11-17T06:15:29.981Z,19.40
2022-11-17T06:18:01.996Z,15.10
2022-11-17T06:20:35.407Z,12.30
2022-11-17T06:23:05.160Z,13.20
2022-11-17T06:25:35.487Z,12.20
2022-11-17T06:28:05.282Z,10.30
2022-11-17T06:30:33.172Z,10.80
2022-11-17T06:33:02.694Z,14.00
2022-11-17T06:35:33.535Z,11.10
2022-11-17T06:38:02.581Z,13.20
2022-11-17T06:40:34.142Z,10.80
2022-11-17T06:43:08.759Z,13.20
2022-11-17T06:45:38.399Z,12.10
2022-11-17T06:48:07.599Z,12.50
2022-11-17T06:50:35.498Z,12.70
2022-11-17T06:53:05.726Z,12.40
2022-11-17T06:55:38.065Z,10.70
2022-11-17T06:58:08.246Z,12.70
2022-11-17T07:00:36.921Z,13.90
2022-11-17T07:03:09.756Z,9.60
2022-11-17T07:05:40.125Z,11.10
2022-11-17T07:08:09.026Z,10.30
2022-11-17T07:10:38.107Z,10.20
2022-11-17T07:13:06.548Z,10.70
2022-11-17T07:15:34.321Z,12.60
2022-11-17T07:18:02.177Z,14.00
2022-11-17T07:20:29.963Z,8.30
2022-11-17T07:23:00.964Z,9.20
2022-11-17T07:25:30.689Z,10.40
2022-11-17T07:28:00.119Z,11.30
2022-11-17T07:30:29.775Z,10.80
2022-11-17T07:33:01.122Z,9.40
2022-11-17T07:35:29.021Z,9.70
2022-11-17T07:38:03.085Z,8.90
2022-11-17T07:40:31.264Z,11.10
2022-11-17T07:42:59.355Z,12.50
2022-11-17T07:45:31.901Z,9.40
2022-11-17T07:48:01.737Z,10.80
2022-11-17T07:50:29.782Z,11.80
2022-11-17T07:52:58.001Z,11.10
2022-11-17T07:55:26.131Z,9.10
2022-11-17T07:58:02.013Z,10.30
2022-11-17T08:00:31.295Z,11.90
2022-11-17T08:03:04.324Z,11.60
2022-11-17T08:05:41.663Z,8.30
2022-11-17T08:08:13.155Z,9.40
2022-11-17T08:10:41.025Z,9.20
2022-11-17T08:13:09.352Z,9.90
2022-11-17T08:15:37.163Z,9.90
2022-11-17T08:18:06.258Z,10.60
2022-11-17T08:20:34.013Z,10.30
2022-11-17T08:23:02.379Z,8.60
2022-11-17T08:25:30.141Z,9.60
2022-11-17T08:27:58.339Z,8.90
2022-11-17T08:30:26.619Z,9.10
2022-11-17T08:32:54.687Z,11.10
2022-11-17T08:35:24.442Z,13.10
2022-11-17T08:37:53.049Z,10.60
2022-11-17T08:40:21.430Z,11.50
2022-11-17T08:43:00.440Z,8.40
2022-11-17T08:45:29.092Z,9.70
2022-11-17T08:47:57.232Z,10.80
2022-11-17T08:50:25.417Z,10.50
2022-11-17T08:52:53.403Z,8.50
2022-11-17T08:55:21.322Z,11.00
2022-11-17T08:57:49.372Z,11.40
2022-11-17T09:00:19.946Z,7.20
2022-11-17T09:02:47.826Z,9.40
2022-11-17T09:05:15.538Z,10.10
2022-11-17T09:07:43.402Z,8.60
2022-11-17T09:10:11.607Z,11.50
2022-11-17T09:12:39.403Z,10.00
2022-11-17T09:15:08.356Z,10.40
2022-11-17T09:17:36.356Z,9.40
2022-11-17T09:20:05.394Z,8.50
2022-11-17T09:22:33.181Z,9.80
2022-11-17T09:25:01.378Z,8.50
2022-11-17T09:27:29.189Z,9.00
2022-11-17T09:29:57.032Z,10.50
2022-11-17T09:32:24.893Z,9.20
2022-11-17T09:34:52.857Z,8.00
2022-11-17T09:37:22.634Z,8.10
2022-11-17T09:39:50.412Z,7.80
2022-11-17T09:42:18.616Z,8.20
2022-11-17T09:45:28.277Z,9.30
2022-11-17T09:48:33.796Z,8.50
2022-11-17T09:50:50.822Z,9.60
2022-11-17T09:54:20.260Z,9.20
2022-11-17T09:56:48.162Z,7.70
2022-11-17T09:59:18.347Z,10.00
2022-11-17T10:01:46.225Z,10.90
2022-11-17T10:04:17.002Z,8.70
2022-11-17T10:06:46.608Z,9.60
2022-11-17T10:09:36.256Z,9.60
2022-11-17T10:12:18.751Z,8.30
2022-11-17T10:14:48.746Z,9.10
2022-11-17T10:17:16.785Z,9.90
2022-11-17T10:19:45.667Z,8.90
2022-11-17T10:22:40.113Z,8.20
2022-11-17T10:25:22.392Z,9.60
2022-11-17T10:27:54.095Z,7.60
2022-11-17T10:30:25.316Z,7.20
2022-11-17T10:32:55.758Z,10.80
2022-11-17T10:35:30.771Z,8.10
2022-11-17T10:38:08.585Z,7.60
2022-11-17T10:40:39.930Z,9.60
2022-11-17T10:43:13.909Z,10.50
2022-11-17T10:46:12.711Z,7.60
2022-11-17T10:48:40.991Z,7.60
2022-11-17T10:51:19.577Z,6.50
2022-11-17T10:54:06.106Z,7.10
2022-11-17T10:56:54.980Z,8.50
2022-11-17T10:59:31.441Z,10.10
2022-11-17T11:02:30.588Z,7.80
2022-11-17T11:05:14.760Z,6.50
2022-11-17T11:08:23.315Z,7.70
2022-11-17T11:11:25.276Z,7.50
2022-11-17T11:14:15.691Z,8.00
2022-11-17T11:16:48.184Z,8.50
2022-11-17T11:19:18.402Z,7.50
2022-11-17T11:22:21.561Z,9.10
2022-11-17T11:25:34.362Z,7.20
2022-11-17T11:28:46.225Z,8.40
2022-11-17T11:31:28.214Z,6.60
2022-11-17T11:34:22.037Z,6.60
2022-11-17T11:36:54.083Z,7.90
2022-11-17T11:39:48.703Z,7.60
2022-11-17T11:42:44.542Z,8.30
2022-11-17T11:45:46.688Z,7.10
2022-11-17T11:48:17.009Z,8.10
2022-11-17T11:50:53.775Z,8.10
2022-11-17T11:53:40.284Z,8.70
2022-11-17T11:56:26.587Z,8.60
2022-11-17T11:59:08.182Z,8.70
2022-11-17T12:01:49.068Z,6.80
2022-11-17T12:04:57.608Z,7.50
2022-11-17T12:08:10.607Z,8.00
2022-11-17T12:10:50.900Z,18.40
2022-11-17T12:13:19.525Z,10.40
2022-11-17T12:15:47.417Z,8.40
2022-11-17T12:18:18.578Z,9.00
2022-11-17T12:21:12.764Z,7.90
2022-11-17T12:24:18.015Z,7.50
2022-11-17T12:26:45.826Z,8.50
2022-11-17T12:29:19.795Z,10.80
2022-11-17T12:31:56.776Z,11.40
2022-11-17T12:34:33.852Z,10.70
2022-11-17T12:37:22.190Z,7.40
2022-11-17T12:39:57.996Z,8.80
2022-11-17T12:42:27.586Z,7.80
2022-11-17T12:44:56.810Z,8.20
2022-11-17T12:47:27.346Z,5.80
2022-11-17T12:50:09.095Z,9.10
2022-11-17T12:53:12.320Z,8.60
2022-11-17T12:56:13.105Z,8.00
2022-11-17T12:59:09.224Z,6.40
2022-11-17T13:02:18.148Z,7.30
2022-11-17T13:04:51.308Z,6.50
2022-11-17T13:07:25.893Z,6.20
2022-11-17T13:09:58.565Z,7.30
2022-11-17T13:12:31.527Z,6.10
2022-11-17T13:15:02.867Z,7.50
2022-11-17T13:17:40.247Z,7.70
2022-11-17T13:20:29.491Z,7.30
2022-11-17T13:23:15.190Z,6.80
2022-11-17T13:25:43.037Z,8.50
2022-11-17T13:28:35.945Z,7.40
2022-11-17T13:31:03.729Z,7.50
2022-11-17T13:33:38.389Z,8.80
2022-11-17T13:36:19.687Z,8.80
2022-11-17T13:38:49.833Z,7.70
2022-11-17T13:41:19.528Z,8.60
2022-11-17T13:43:47.731Z,7.80
2022-11-17T13:46:15.549Z,6.90
2022-11-17T13:48:47.471Z,7.10
2022-11-17T13:51:42.473Z,7.90
2022-11-17T13:54:14.048Z,7.20
2022-11-17T13:56:46.508Z,7.60
2022-11-17T13:59:29.050Z,7.40
2022-11-17T14:02:19.430Z,10.50
2022-11-17T14:05:27.808Z,8.10
2022-11-17T14:07:57.709Z,8.80
2022-11-17T14:10:27.751Z,8.80
2022-11-17T14:13:01.613Z,9.20
2022-11-17T14:15:37.911Z,7.60
2022-11-17T14:18:21.514Z,8.40
2022-11-17T14:20:49.566Z,8.70
2022-11-17T14:23:18.227Z,7.40
2022-11-17T14:25:50.279Z,10.00
2022-11-17T14:28:20.805Z,9.70
2022-11-17T14:30:53.843Z,8.30
2022-11-17T14:33:22.260Z,7.70
2022-11-17T14:35:59.016Z,7.60
2022-11-17T14:38:26.808Z,8.60
2022-11-17T14:40:55.115Z,9.20
2022-11-17T14:43:23.322Z,9.10
2022-11-17T14:45:51.249Z,10.60
2022-11-17T14:48:20.382Z,9.40
2022-11-17T14:50:48.546Z,10.10
2022-11-17T14:53:16.361Z,11.10
2022-11-17T14:55:44.345Z,10.90
2022-11-17T14:58:12.320Z,10.20
2022-11-17T15:00:40.156Z,11.90
2022-11-17T15:03:07.995Z,12.80
2022-11-17T15:05:36.533Z,13.40
2022-11-17T15:08:05.115Z,10.80
2022-11-17T15:10:33.288Z,12.00
2022-11-17T15:13:01.129Z,13.10
2022-11-17T15:15:29.016Z,13.30
2022-11-17T15:17:56.791Z,12.20
2022-11-17T15:20:24.676Z,15.30
2022-11-17T15:22:52.518Z,10.20
2022-11-17T15:25:20.315Z,13.30
2022-11-17T15:27:48.411Z,13.90
2022-11-17T15:30:17.339Z,14.20
2022-11-17T15:32:45.125Z,13.70
2022-11-17T15:35:12.947Z,14.50
2022-11-17T15:37:40.720Z,11.70
2022-11-17T15:40:10.733Z,11.90
2022-11-17T15:42:39.253Z,10.50
2022-11-17T15:45:08.090Z,11.10
2022-11-17T15:47:36.090Z,12.80
2022-11-17T15:50:04.898Z,9.80
2022-11-17T15:52:56.645Z,10.20
2022-11-17T15:55:20.716Z,11.30
2022-11-17T15:57:48.505Z,10.60
2022-11-17T16:00:17.435Z,12.10
2022-11-17T16:02:45.194Z,13.80
2022-11-17T16:05:13.043Z,13.10
2022-11-17T16:07:41.021Z,14.90
2022-11-17T16:10:09.727Z,15.40
2022-11-17T16:12:37.813Z,17.40
2022-11-17T16:15:07.091Z,22.10
2022-11-17T16:17:34.912Z,16.70
2022-11-17T16:20:02.879Z,11.10
2022-11-17T16:22:31.366Z,14.40
2022-11-17T16:24:59.316Z,11.70
2022-11-17T16:27:27.239Z,13.70
2022-11-17T16:29:55.310Z,14.30
2022-11-17T16:32:23.192Z,14.80
2022-11-17T16:34:51.184Z,13.70
2022-11-17T16:37:18.938Z,13.90
2022-11-17T16:39:46.692Z,17.70
2022-11-17T16:42:14.693Z,14.20
2022-11-17T16:44:42.640Z,15.60
2022-11-17T16:47:10.515Z,11.30
2022-11-17T16:49:38.438Z,13.70
2022-11-17T16:52:06.363Z,20.10
2022-11-17T16:54:34.177Z,23.00
2022-11-17T16:57:01.983Z,15.00
2022-11-17T16:59:29.755Z,11.70
2022-11-17T17:01:57.668Z,11.30
2022-11-17T17:04:26.864Z,15.10
2022-11-17T17:06:55.027Z,14.10
2022-11-17T17:09:27.718Z,13.70
2022-11-17T17:11:56.039Z,16.20
2022-11-17T17:14:23.958Z,18.00
2022-11-17T17:16:51.827Z,15.40
2022-11-17T17:19:19.852Z,14.30
2022-11-17T17:21:48.404Z,13.50
2022-11-17T17:24:16.202Z,10.00
2022-11-17T17:26:44.040Z,12.70
2022-11-17T17:29:12.760Z,11.60
2022-11-17T17:31:41.727Z,12.80
2022-11-17T17:34:11.598Z,15.30
2022-11-17T17:36:39.443Z,17.00
2022-11-17T17:39:07.966Z,13.60
2022-11-17T17:41:39.547Z,15.30
2022-11-17T17:44:08.176Z,13.60
2022-11-17T17:46:38.178Z,12.20
2022-11-17T17:49:06.270Z,15.80
2022-11-17T17:51:40.261Z,17.70
2022-11-17T17:54:14.158Z,19.30
2022-11-17T17:56:42.010Z,14.40
2022-11-17T17:59:09.810Z,16.50
2022-11-17T18:01:40.787Z,13.80
2022-11-17T18:04:15.367Z,10.80
2022-11-17T18:06:47.280Z,13.10
2022-11-17T18:09:19.059Z,12.70
2022-11-17T18:11:50.529Z,10.30
2022-11-17T18:14:24.991Z,11.60
2022-11-17T18:16:54.102Z,13.20
2022-11-17T18:19:22.339Z,14.60
2022-11-17T18:21:50.307Z,15.30
2022-11-17T18:24:18.205Z,16.70
2022-11-17T18:26:46.161Z,13.80
2022-11-17T18:29:16.436Z,12.40
2022-11-17T18:31:46.892Z,12.00
2022-11-17T18:34:24.261Z,14.60
2022-11-17T18:36:55.670Z,14.20
2022-11-17T18:39:24.728Z,12.40
2022-11-17T18:41:52.546Z,13.80
2022-11-17T18:44:20.394Z,12.20
2022-11-17T18:46:48.435Z,12.40
2022-11-17T18:49:16.683Z,13.80
2022-11-17T18:51:44.880Z,13.30
2022-11-17T18:54:13.250Z,11.10
2022-11-17T18:56:41.129Z,11.80
2022-11-17T18:59:12.032Z,11.80
2022-11-17T19:01:41.411Z,10.10
2022-11-17T19:04:10.684Z,12.10
2022-11-17T19:06:38.475Z,11.90
2022-11-17T19:09:06.947Z,15.30
2022-11-17T19:11:34.860Z,11.40
2022-11-17T19:14:03.055Z,14.30
2022-11-17T19:16:32.034Z,15.20
2022-11-17T19:18:59.925Z,16.00
2022-11-17T19:21:33.682Z,12.60
2022-11-17T19:24:03.357Z,15.30
2022-11-17T19:26:33.622Z,13.10
2022-11-17T19:29:12.651Z,14.10
2022-11-17T19:31:44.007Z,16.40
2022-11-17T19:34:12.122Z,19.30
2022-11-17T19:36:40.253Z,14.60
2022-11-17T19:39:08.058Z,16.60
2022-11-17T19:41:39.792Z,19.10
2022-11-17T19:44:08.616Z,18.60
2022-11-17T19:46:36.638Z,22.20
2022-11-17T19:49:06.012Z,17.70
2022-11-17T19:51:36.530Z,20.60
2022-11-17T19:54:07.366Z,19.90
2022-11-17T19:56:35.568Z,19.00
2022-11-17T19:59:03.607Z,21.50
2022-11-17T20:01:32.511Z,21.50
2022-11-17T20:04:01.283Z,21.00
2022-11-17T20:06:34.788Z,18.60
2022-11-17T20:09:08.034Z,19.80
2022-11-17T20:11:35.993Z,15.20
2022-11-17T20:14:03.821Z,20.10
2022-11-17T20:16:32.254Z,18.30
2022-11-17T20:19:01.374Z,17.70
2022-11-17T20:21:30.003Z,20.10
2022-11-17T20:23:59.141Z,15.00
2022-11-17T20:26:32.287Z,19.10
2022-11-17T20:29:00.433Z,24.40
2022-11-17T20:31:30.881Z,24.90
2022-11-17T20:34:00.847Z,18.60
2022-11-17T20:36:32.013Z,18.50
2022-11-17T20:39:02.177Z,18.70
2022-11-17T20:41:30.243Z,18.00
2022-11-17T20:43:59.433Z,18.10
2022-11-17T20:46:27.604Z,16.00
2022-11-17T20:48:55.685Z,19.20
2022-11-17T20:51:24.658Z,19.50
2022-11-17T20:53:52.636Z,21.00
2022-11-17T20:56:22.454Z,18.30
2022-11-17T20:58:50.324Z,25.30
2022-11-17T21:01:20.633Z,20.70
2022-11-17T21:03:50.857Z,17.00
2022-11-17T21:06:19.933Z,19.90
2022-11-17T21:08:47.711Z,18.20
2022-11-17T21:11:36.365Z,19.20
2022-11-17T21:14:05.870Z,17.90
2022-11-17T21:16:34.161Z,17.10
2022-11-17T21:19:02.021Z,18.40
2022-11-17T21:21:31.391Z,16.30
2022-11-17T21:23:59.910Z,16.20
2022-11-17T21:26:30.528Z,14.00
2022-11-17T21:29:04.816Z,13.80
2022-11-17T21:31:34.553Z,16.20
2022-11-17T21:34:04.573Z,14.90
2022-11-17T21:36:33.778Z,16.80
2022-11-17T21:39:01.979Z,19.90
2022-11-17T21:41:32.050Z,17.40
2022-11-17T21:44:01.978Z,16.10
2022-11-17T21:46:32.328Z,15.10
2022-11-17T21:49:01.754Z,16.20
2022-11-17T21:51:34.691Z,21.70
2022-11-17T21:54:04.828Z,21.50
2022-11-17T21:56:32.979Z,20.00
2022-11-17T21:59:11.234Z,23.80
2022-11-17T22:01:39.541Z,23.30
2022-11-17T22:04:07.442Z,17.30
2022-11-17T22:06:35.543Z,16.40
2022-11-17T22:09:03.424Z,16.00
2022-11-17T22:11:38.328Z,13.30
2022-11-17T22:14:08.261Z,19.10
2022-11-17T22:16:41.206Z,12.20
2022-11-17T22:19:09.784Z,12.80
2022-11-17T22:21:38.463Z,15.70
2022-11-17T22:24:08.198Z,13.70
2022-11-17T22:26:38.459Z,14.90
2022-11-17T22:29:15.689Z,16.90
2022-11-17T22:31:45.288Z,20.70
2022-11-17T22:34:13.628Z,20.80
2022-11-17T22:36:41.755Z,18.60
2022-11-17T22:39:09.602Z,18.40
2022-11-17T22:41:37.454Z,17.40
2022-11-17T22:44:05.437Z,17.00
2022-11-17T22:46:33.649Z,18.80
2022-11-17T22:49:01.543Z,17.60
2022-11-17T22:51:47.979Z,19.30
2022-11-17T22:54:15.772Z,21.60
2022-11-17T22:56:43.540Z,17.40
2022-11-17T22:59:11.434Z,15.70
2022-11-17T23:01:39.369Z,20.70
2022-11-17T23:04:07.311Z,18.60
2022-11-17T23:06:35.121Z,17.40
2022-11-17T23:09:02.879Z,21.00
2022-11-17T23:11:37.104Z,19.50
2022-11-17T23:14:07.823Z,17.70
2022-11-17T23:16:39.013Z,14.70
2022-11-17T23:19:06.997Z,18.20
2022-11-17T23:21:34.837Z,19.70
2022-11-17T23:24:04.006Z,19.00
2022-11-17T23:26:31.774Z,17.80
2022-11-17T23:28:59.573Z,18.00
2022-11-17T23:31:28.270Z,16.80
2022-11-17T23:33:56.346Z,16.50
2022-11-17T23:36:24.413Z,17.00
2022-11-17T23:38:52.644Z,17.00
2022-11-17T23:41:21.172Z,17.70
2022-11-17T23:43:53.644Z,18.30
2022-11-17T23:46:23.896Z,16.30
2022-11-17T23:48:51.953Z,16.40
2022-11-17T23:51:21.987Z,18.50
2022-11-17T23:53:49.905Z,15.00
2022-11-17T23:56:20.624Z,17.20
2022-11-17T23:58:49.032Z,17.30
